createdAt,value
2019-06-08T00:01:08.764Z,7.65
2019-06-08T00:03:40.956Z,7.58
2019-06-08T00:06:13.090Z,7.78
2019-06-08T00:08:45.321Z,8.70
2019-06-08T00:11:18.920Z,7.57
2019-06-08T00:13:51.309Z,7.12
2019-06-08T00:16:23.875Z,7.33
2019-06-08T00:18:56.311Z,6.83
2019-06-08T00:21:28.486Z,7.03
2019-06-08T00:24:00.652Z,6.87
2019-06-08T00:26:32.662Z,7.05
2019-06-08T00:29:04.784Z,7.10
2019-06-08T00:31:38.349Z,6.70
2019-06-08T00:34:10.407Z,7.55
2019-06-08T00:36:42.605Z,7.22
2019-06-08T00:39:14.891Z,6.55
2019-06-08T00:41:47.068Z,7.00
2019-06-08T00:44:19.414Z,12.33
2019-06-08T00:46:51.894Z,6.90
2019-06-08T00:49:24.724Z,5.53
2019-06-08T00:51:57.176Z,4.87
2019-06-08T00:54:29.810Z,4.28
2019-06-08T00:57:01.934Z,4.65
2019-06-08T00:59:34.157Z,5.10
2019-06-08T01:02:06.275Z,4.62
2019-06-08T01:04:38.502Z,4.70
2019-06-08T01:07:10.547Z,4.95
2019-06-08T01:09:42.572Z,4.78
2019-06-08T01:12:14.742Z,4.70
2019-06-08T01:14:46.898Z,4.80
2019-06-08T01:17:19.392Z,5.25
2019-06-08T01:19:51.446Z,5.53
2019-06-08T01:22:25.553Z,5.03
2019-06-08T01:24:57.766Z,5.75
2019-06-08T01:27:30.161Z,6.62
2019-06-08T01:30:02.411Z,4.90
2019-06-08T01:32:35.686Z,4.78
2019-06-08T01:35:07.867Z,4.80
2019-06-08T01:37:39.901Z,5.28
2019-06-08T01:40:12.149Z,4.60
2019-06-08T01:42:44.416Z,4.70
2019-06-08T01:45:18.919Z,4.53
2019-06-08T01:47:51.465Z,5.20
2019-06-08T01:50:24.343Z,5.20
2019-06-08T01:52:56.530Z,5.33
2019-06-08T01:55:29.037Z,4.97
2019-06-08T01:58:02.407Z,5.10
2019-06-08T02:00:39.423Z,5.33
2019-06-08T02:03:07.902Z,5.28
2019-06-08T02:05:40.014Z,5.13
2019-06-08T02:08:12.129Z,5.40
2019-06-08T02:10:44.542Z,4.58
2019-06-08T02:13:16.617Z,4.23
2019-06-08T02:15:49.754Z,4.25
2019-06-08T02:18:36.318Z,4.12
2019-06-08T02:20:55.988Z,4.15
2019-06-08T02:23:28.874Z,4.33
2019-06-08T02:26:01.148Z,4.00
2019-06-08T02:28:33.614Z,4.22
2019-06-08T02:31:05.735Z,4.30
2019-06-08T02:33:37.991Z,4.60
2019-06-08T02:36:10.202Z,3.95
2019-06-08T02:38:42.781Z,3.40
2019-06-08T02:41:14.846Z,3.30
2019-06-08T02:43:47.175Z,3.60
2019-06-08T02:46:19.607Z,3.27
2019-06-08T02:49:03.254Z,4.08
2019-06-08T02:51:25.591Z,3.65
2019-06-08T02:53:58.097Z,3.15
2019-06-08T02:56:31.988Z,3.10
2019-06-08T02:59:05.192Z,2.62
2019-06-08T03:01:38.861Z,2.60
2019-06-08T03:04:10.985Z,2.85
2019-06-08T03:06:43.540Z,2.60
2019-06-08T03:09:16.004Z,2.70
2019-06-08T03:11:48.254Z,2.58
2019-06-08T03:14:21.578Z,2.60
2019-06-08T03:16:53.921Z,2.90
2019-06-08T03:19:26.337Z,2.42
2019-06-08T03:21:58.557Z,3.10
2019-06-08T03:24:32.250Z,2.35
2019-06-08T03:27:04.133Z,2.30
2019-06-08T03:29:37.270Z,2.30
2019-06-08T03:32:09.582Z,2.45
2019-06-08T03:34:51.113Z,2.40
2019-06-08T03:37:14.981Z,2.50
2019-06-08T03:39:47.207Z,2.10
2019-06-08T03:42:19.259Z,3.08
2019-06-08T03:44:51.339Z,2.12
2019-06-08T03:47:23.394Z,2.20
2019-06-08T03:49:57.673Z,2.12
2019-06-08T03:52:29.343Z,2.10
2019-06-08T03:55:01.669Z,2.12
2019-06-08T03:57:33.893Z,2.20
2019-06-08T04:00:13.519Z,2.63
2019-06-08T04:02:42.271Z,2.50
2019-06-08T04:05:15.449Z,2.40
2019-06-08T04:07:47.577Z,2.25
2019-06-08T04:10:19.760Z,2.40
2019-06-08T04:12:51.856Z,2.60
2019-06-08T04:15:24.029Z,2.60
2019-06-08T04:17:56.402Z,2.20
2019-06-08T04:20:28.949Z,3.52
2019-06-08T04:23:01.006Z,2.55
2019-06-08T04:25:33.057Z,2.92
2019-06-08T04:28:05.217Z,2.40
2019-06-08T04:40:53.691Z,2.30
2019-06-08T04:43:25.908Z,2.70
2019-06-08T04:45:57.904Z,2.55
2019-06-08T04:48:30.124Z,2.50
2019-06-08T04:51:02.741Z,2.10
2019-06-08T04:53:34.875Z,1.92
2019-06-08T04:56:06.996Z,2.20
2019-06-08T04:58:39.867Z,2.10
2019-06-08T05:01:13.711Z,2.10
2019-06-08T05:03:47.288Z,2.00
2019-06-08T05:06:19.113Z,2.10
2019-06-08T05:08:51.315Z,2.30
2019-06-08T05:11:23.581Z,1.90
2019-06-08T05:13:55.788Z,2.10
2019-06-08T05:16:28.082Z,1.90
2019-06-08T05:19:00.278Z,2.50
2019-06-08T05:21:32.721Z,1.85
2019-06-08T05:24:04.749Z,2.35
2019-06-08T05:26:36.992Z,2.60
2019-06-08T05:29:09.204Z,1.98
2019-06-08T05:31:41.525Z,2.45
2019-06-08T05:34:14.020Z,2.10
2019-06-08T05:36:47.465Z,2.20
2019-06-08T05:39:19.517Z,1.80
2019-06-08T05:41:51.576Z,1.85
2019-06-08T05:44:24.003Z,2.15
2019-06-08T05:46:56.262Z,2.33
2019-06-08T05:49:28.562Z,2.50
2019-06-08T05:52:00.896Z,2.65
2019-06-08T05:54:32.886Z,2.20
2019-06-08T05:57:06.193Z,2.20
2019-06-08T05:59:40.037Z,3.02
2019-06-08T06:02:12.411Z,2.40
2019-06-08T06:04:44.876Z,2.40
2019-06-08T06:07:18.564Z,2.15
2019-06-08T06:09:51.123Z,2.30
2019-06-08T06:12:23.985Z,1.98
2019-06-08T06:14:56.223Z,2.22
2019-06-08T06:17:28.496Z,2.22
2019-06-08T06:20:00.513Z,2.10
2019-06-08T06:22:32.736Z,2.25
2019-06-08T06:25:06.669Z,2.33
2019-06-08T06:27:38.890Z,1.90
2019-06-08T06:30:10.967Z,2.00
2019-06-08T06:32:43.835Z,1.65
2019-06-08T06:35:16.052Z,3.62
2019-06-08T06:37:48.436Z,2.00
2019-06-08T06:40:20.658Z,2.60
2019-06-08T06:42:52.713Z,2.58
2019-06-08T06:45:24.752Z,1.62
2019-06-08T06:47:56.908Z,2.05
2019-06-08T06:50:29.006Z,2.58
2019-06-08T06:53:01.359Z,3.62
2019-06-08T06:55:33.691Z,2.72
2019-06-08T06:58:05.949Z,2.50
2019-06-08T07:00:38.058Z,5.57
2019-06-08T07:03:10.216Z,2.52
2019-06-08T07:05:43.657Z,3.22
2019-06-08T07:08:18.321Z,3.10
2019-06-08T07:10:50.850Z,2.83
2019-06-08T07:13:22.983Z,2.20
2019-06-08T07:15:58.013Z,2.07
2019-06-08T07:18:31.806Z,2.20
2019-06-08T07:21:04.028Z,2.20
2019-06-08T07:23:36.197Z,2.25
2019-06-08T07:26:08.231Z,3.08
2019-06-08T07:28:40.387Z,1.87
2019-06-08T07:31:12.482Z,2.08
2019-06-08T07:33:46.732Z,2.27
2019-06-08T07:36:19.495Z,2.00
2019-06-08T07:38:51.727Z,2.00
2019-06-08T07:41:23.847Z,2.05
2019-06-08T07:43:56.592Z,1.92
2019-06-08T07:46:30.733Z,2.05
2019-06-08T07:49:02.801Z,2.50
2019-06-08T07:51:35.973Z,2.45
2019-06-08T07:54:08.223Z,2.20
2019-06-08T07:56:40.226Z,2.40
2019-06-08T07:59:12.525Z,2.30
2019-06-08T08:01:44.640Z,2.30
2019-06-08T08:04:16.776Z,2.20
2019-06-08T08:06:50.315Z,1.90
2019-06-08T08:09:23.051Z,2.22
2019-06-08T08:11:57.042Z,2.35
2019-06-08T08:14:29.513Z,2.27
2019-06-08T08:17:01.950Z,2.17
2019-06-08T08:19:34.092Z,2.50
2019-06-08T08:22:19.657Z,2.40
2019-06-08T08:24:40.084Z,2.37
2019-06-08T08:27:12.265Z,2.65
2019-06-08T08:29:44.317Z,2.83
2019-06-08T08:32:18.656Z,2.10
2019-06-08T08:34:50.891Z,2.10
2019-06-08T08:37:23.417Z,2.25
2019-06-08T08:39:58.561Z,2.17
2019-06-08T08:42:30.103Z,2.30
2019-06-08T08:45:04.731Z,2.60
2019-06-08T08:47:38.427Z,2.40
2019-06-08T08:50:09.848Z,2.27
2019-06-08T08:52:41.912Z,2.20
2019-06-08T08:55:14.379Z,2.25
2019-06-08T08:57:48.459Z,2.62
2019-06-08T09:00:21.437Z,2.12
2019-06-08T09:03:18.213Z,2.40
2019-06-08T09:05:28.136Z,2.37
2019-06-08T09:08:02.589Z,2.37
2019-06-08T09:10:34.201Z,2.27
2019-06-08T09:13:09.288Z,2.50
2019-06-08T09:15:39.816Z,3.60
2019-06-08T09:18:11.822Z,2.83
2019-06-08T09:20:44.198Z,2.70
2019-06-08T09:23:21.461Z,2.87
2019-06-08T09:25:52.439Z,2.50
2019-06-08T09:28:23.750Z,2.60
2019-06-08T09:30:56.750Z,2.60
2019-06-08T09:33:29.594Z,2.90
2019-06-08T09:36:04.522Z,4.40
2019-06-08T09:38:35.602Z,2.70
2019-06-08T09:41:09.021Z,4.25
2019-06-08T09:43:42.349Z,2.45
2019-06-08T09:46:14.689Z,2.92
2019-06-08T09:48:48.646Z,2.63
2019-06-08T09:51:20.511Z,2.70
2019-06-08T09:53:54.242Z,2.87
2019-06-08T09:56:28.244Z,2.58
2019-06-08T09:59:03.816Z,3.47
2019-06-08T10:01:34.009Z,2.87
2019-06-08T10:04:09.003Z,3.00
2019-06-08T10:06:40.409Z,4.92
2019-06-08T10:09:13.201Z,3.58
2019-06-08T10:11:45.395Z,2.98
2019-06-08T10:14:18.736Z,3.25
2019-06-08T10:16:51.061Z,3.05
2019-06-08T10:19:23.231Z,3.22
2019-06-08T10:21:56.786Z,3.12
2019-06-08T10:24:29.079Z,3.15
2019-06-08T10:27:01.467Z,3.50
2019-06-08T10:29:33.607Z,3.55
2019-06-08T10:32:08.858Z,3.33
2019-06-08T10:34:40.522Z,3.00
2019-06-08T10:37:13.671Z,3.65
2019-06-08T10:39:47.732Z,3.12
2019-06-08T10:42:19.484Z,3.10
2019-06-08T10:44:51.594Z,3.12
2019-06-08T10:47:23.851Z,3.12
2019-06-08T10:50:01.665Z,3.40
2019-06-08T10:52:30.420Z,3.35
2019-06-08T10:55:04.664Z,3.10
2019-06-08T10:57:37.453Z,3.47
2019-06-08T11:00:20.228Z,3.50
2019-06-08T11:02:45.245Z,3.50
2019-06-08T11:05:18.061Z,3.50
2019-06-08T11:07:50.616Z,3.60
2019-06-08T11:10:22.867Z,3.92
2019-06-08T11:12:57.768Z,4.40
2019-06-08T11:15:29.687Z,4.55
2019-06-08T11:18:04.969Z,4.77
2019-06-08T11:20:38.072Z,4.40
2019-06-08T11:23:12.260Z,4.10
2019-06-08T11:25:42.541Z,4.72
2019-06-08T11:28:15.326Z,4.58
2019-06-08T11:30:48.523Z,5.15
2019-06-08T11:33:20.738Z,5.60
2019-06-08T11:35:52.779Z,5.37
2019-06-08T11:38:24.968Z,5.20
2019-06-08T11:40:57.469Z,5.37
2019-06-08T11:43:30.825Z,5.60
2019-06-08T11:46:04.628Z,5.55
2019-06-08T11:48:40.868Z,5.50
2019-06-08T11:51:12.900Z,6.53
2019-06-08T11:53:43.763Z,7.00
2019-06-08T11:56:18.110Z,6.40
2019-06-08T11:58:50.449Z,6.80
2019-06-08T12:01:23.037Z,7.78
2019-06-08T12:03:57.817Z,8.80
2019-06-08T12:06:28.720Z,8.43
2019-06-08T12:09:00.877Z,8.73
2019-06-08T12:11:34.405Z,7.92
2019-06-08T12:14:09.221Z,8.38
2019-06-08T12:16:40.160Z,6.90
2019-06-08T12:19:15.567Z,5.97
2019-06-08T12:21:49.673Z,5.80
2019-06-08T12:24:19.342Z,5.05
2019-06-08T12:26:57.737Z,5.50
2019-06-08T12:29:25.606Z,5.58
2019-06-08T12:32:00.115Z,5.65
2019-06-08T12:34:31.471Z,5.58
2019-06-08T12:37:03.592Z,5.50
2019-06-08T12:39:35.759Z,5.10
2019-06-08T12:42:09.568Z,5.60
2019-06-08T12:44:43.669Z,5.57
2019-06-08T12:47:20.749Z,5.55
2019-06-08T12:49:49.425Z,6.30
2019-06-08T12:52:22.443Z,6.05
2019-06-08T12:55:03.479Z,5.90
2019-06-08T12:57:28.619Z,5.45
2019-06-08T13:00:01.247Z,5.20
2019-06-08T13:02:33.526Z,5.08
2019-06-08T13:05:10.676Z,4.55
2019-06-08T13:07:42.055Z,4.70
2019-06-08T13:10:15.321Z,4.53
2019-06-08T13:12:47.975Z,4.62
2019-06-08T13:15:21.891Z,4.33
2019-06-08T13:17:53.661Z,4.00
2019-06-08T13:20:28.236Z,4.90
2019-06-08T13:23:00.445Z,4.30
2019-06-08T13:25:40.294Z,4.30
2019-06-08T13:28:10.898Z,4.90
2019-06-08T13:30:40.218Z,4.67
2019-06-08T13:33:12.335Z,4.40
2019-06-08T13:35:44.488Z,5.10
2019-06-08T13:38:17.337Z,5.40
2019-06-08T13:40:51.186Z,4.55
2019-06-08T13:43:23.333Z,5.22
2019-06-08T13:45:58.111Z,5.40
2019-06-08T13:48:29.152Z,5.12
2019-06-08T13:51:01.242Z,5.28
2019-06-08T13:53:33.395Z,5.60
2019-06-08T13:56:07.688Z,5.35
2019-06-08T13:58:39.184Z,5.58
2019-06-08T14:01:15.418Z,5.40
2019-06-08T14:03:49.975Z,5.30
2019-06-08T14:06:23.352Z,5.23
2019-06-08T14:08:58.008Z,5.05
2019-06-08T14:11:30.248Z,4.70
2019-06-08T14:14:02.477Z,5.53
2019-06-08T14:16:35.643Z,5.80
2019-06-08T14:19:08.584Z,5.27
2019-06-08T14:21:41.798Z,5.15
2019-06-08T14:24:14.263Z,4.72
2019-06-08T14:26:48.486Z,5.33
2019-06-08T14:29:21.419Z,5.00
2019-06-08T14:31:53.444Z,4.83
2019-06-08T14:34:26.911Z,5.33
2019-06-08T14:36:59.522Z,5.15
2019-06-08T14:39:31.979Z,5.10
2019-06-08T14:42:04.200Z,5.00
2019-06-08T14:44:38.036Z,5.00
2019-06-08T14:47:11.043Z,5.10
2019-06-08T14:49:45.034Z,5.10
2019-06-08T14:52:19.393Z,5.00
2019-06-08T14:54:51.407Z,5.28
2019-06-08T14:57:23.630Z,5.15
2019-06-08T14:59:57.211Z,5.65
2019-06-08T15:02:31.299Z,5.22
2019-06-08T15:05:02.861Z,5.28
2019-06-08T15:07:35.397Z,5.35
2019-06-08T15:10:10.118Z,5.42
2019-06-08T15:12:42.220Z,5.12
2019-06-08T15:15:14.464Z,5.15
2019-06-08T15:17:47.734Z,5.13
2019-06-08T15:20:21.932Z,4.85
2019-06-08T15:22:54.153Z,4.90
2019-06-08T15:25:27.362Z,5.08
2019-06-08T15:28:01.348Z,5.30
2019-06-08T15:30:33.174Z,5.00
2019-06-08T15:33:06.031Z,4.87
2019-06-08T15:35:38.279Z,4.70
2019-06-08T15:38:10.409Z,4.85
2019-06-08T15:40:42.581Z,5.05
2019-06-08T15:43:14.922Z,4.70
2019-06-08T15:46:08.324Z,4.67
2019-06-08T15:48:41.411Z,5.08
2019-06-08T15:51:13.625Z,5.00
2019-06-08T15:53:47.769Z,4.90
2019-06-08T15:56:19.479Z,4.80
2019-06-08T15:58:51.934Z,5.03
2019-06-08T16:01:25.057Z,4.90
2019-06-08T16:03:57.454Z,5.28
2019-06-08T16:06:29.710Z,4.95
2019-06-08T16:09:02.047Z,4.87
2019-06-08T16:11:35.556Z,5.08
2019-06-08T16:14:07.885Z,4.78
2019-06-08T16:16:39.946Z,4.25
2019-06-08T16:19:12.174Z,4.35
2019-06-08T16:21:44.410Z,4.33
2019-06-08T16:24:16.545Z,4.60
2019-06-08T16:26:53.344Z,4.80
2019-06-08T16:29:22.436Z,4.58
2019-06-08T16:31:54.561Z,4.50
2019-06-08T16:34:27.309Z,4.97
2019-06-08T16:36:59.486Z,4.97
2019-06-08T16:39:32.752Z,5.17
2019-06-08T16:42:05.042Z,4.93
2019-06-08T16:44:38.480Z,5.10
2019-06-08T16:47:10.710Z,5.37
2019-06-08T16:49:42.933Z,5.07
2019-06-08T16:52:17.178Z,4.37
2019-06-08T16:54:48.558Z,5.17
2019-06-08T16:57:20.757Z,6.15
2019-06-08T16:59:52.834Z,5.08
2019-06-08T17:02:25.067Z,5.00
2019-06-08T17:04:58.383Z,4.90
2019-06-08T17:07:32.123Z,5.60
2019-06-08T17:10:03.985Z,5.15
2019-06-08T17:12:37.015Z,4.43
2019-06-08T17:15:09.346Z,5.05
2019-06-08T17:17:41.588Z,5.40
2019-06-08T17:20:13.637Z,4.95
2019-06-08T17:22:45.737Z,4.92
2019-06-08T17:25:19.313Z,5.10
2019-06-08T17:27:51.332Z,4.65
2019-06-08T17:30:23.470Z,4.72
2019-06-08T17:32:55.582Z,4.78
2019-06-08T17:35:27.770Z,4.50
2019-06-08T17:37:59.938Z,4.50
2019-06-08T17:40:32.079Z,4.85
2019-06-08T17:43:04.349Z,4.42
2019-06-08T17:45:36.489Z,4.75
2019-06-08T17:48:08.727Z,4.20
2019-06-08T17:50:40.800Z,4.45
2019-06-08T17:53:12.980Z,3.60
2019-06-08T17:55:45.670Z,3.55
2019-06-08T17:58:21.434Z,3.55
2019-06-08T18:00:51.607Z,3.52
2019-06-08T18:03:23.756Z,2.90
2019-06-08T18:05:58.043Z,3.25
2019-06-08T18:08:30.703Z,3.10
2019-06-08T18:11:02.973Z,3.20
2019-06-08T18:13:36.870Z,3.00
2019-06-08T18:16:08.945Z,3.10
2019-06-08T18:18:42.294Z,3.08
2019-06-08T18:21:14.925Z,2.85
2019-06-08T18:23:48.212Z,2.57
2019-06-08T18:26:20.452Z,2.65
2019-06-08T18:28:55.004Z,2.60
2019-06-08T18:31:27.654Z,2.85
2019-06-08T18:34:01.971Z,2.60
2019-06-08T18:36:33.036Z,2.80
2019-06-08T18:39:07.231Z,2.58
2019-06-08T18:41:40.838Z,2.80
2019-06-08T18:44:13.065Z,2.70
2019-06-08T18:46:45.284Z,2.50
2019-06-08T18:49:17.878Z,2.55
2019-06-08T18:51:50.997Z,2.70
2019-06-08T18:54:23.206Z,2.58
2019-06-08T18:56:55.331Z,2.40
2019-06-08T18:59:28.673Z,2.40
2019-06-08T19:02:01.176Z,2.72
2019-06-08T19:04:34.418Z,2.40
2019-06-08T19:07:07.904Z,2.40
2019-06-08T19:09:41.272Z,2.60
2019-06-08T19:12:13.882Z,2.90
2019-06-08T19:14:47.539Z,2.42
2019-06-08T19:17:19.389Z,2.42
2019-06-08T19:19:52.426Z,2.70
2019-06-08T19:22:24.991Z,2.70
2019-06-08T19:24:57.202Z,4.28
2019-06-08T19:27:29.427Z,3.30
2019-06-08T19:30:01.571Z,2.50
2019-06-08T19:32:33.927Z,2.40
2019-06-08T19:35:07.346Z,2.62
2019-06-08T19:37:39.946Z,2.80
2019-06-08T19:40:12.339Z,2.45
2019-06-08T19:42:55.033Z,2.60
2019-06-08T19:45:18.827Z,2.92
2019-06-08T19:47:51.079Z,2.85
2019-06-08T19:50:23.078Z,2.67
2019-06-08T19:52:57.832Z,2.83
2019-06-08T19:55:28.710Z,2.93
2019-06-08T19:58:01.000Z,2.80
2019-06-08T20:00:33.067Z,2.52
2019-06-08T20:03:07.535Z,2.70
2019-06-08T20:05:38.687Z,2.70
2019-06-08T20:08:10.910Z,2.85
2019-06-08T20:10:43.130Z,2.90
2019-06-08T20:13:15.289Z,2.60
2019-06-08T20:15:54.347Z,2.45
2019-06-08T20:18:20.923Z,3.02
2019-06-08T20:20:54.448Z,2.90
2019-06-08T20:23:27.594Z,2.70
2019-06-08T20:26:00.812Z,2.80
2019-06-08T20:28:33.102Z,2.47
2019-06-08T20:31:07.274Z,2.73
2019-06-08T20:33:38.872Z,2.80
2019-06-08T20:36:11.004Z,2.90
2019-06-08T20:38:44.734Z,2.75
2019-06-08T20:41:18.272Z,2.92
2019-06-08T20:43:52.135Z,3.00
2019-06-08T20:46:24.205Z,2.98
2019-06-08T20:48:57.696Z,3.12
2019-06-08T20:51:29.906Z,3.27
2019-06-08T20:54:02.056Z,3.05
2019-06-08T20:56:37.209Z,2.60
2019-06-08T20:59:08.767Z,3.00
2019-06-08T21:01:40.910Z,2.95
2019-06-08T21:04:13.070Z,3.10
2019-06-08T21:06:46.307Z,3.00
2019-06-08T21:09:19.114Z,3.37
2019-06-08T21:11:52.891Z,3.40
2019-06-08T21:14:27.215Z,3.10
2019-06-08T21:16:58.754Z,3.40
2019-06-08T21:19:30.906Z,3.37
2019-06-08T21:22:02.961Z,3.20
2019-06-08T21:24:37.017Z,3.72
2019-06-08T21:27:08.684Z,3.80
2019-06-08T21:29:49.059Z,3.50
2019-06-08T21:32:14.263Z,3.35
2019-06-08T21:34:49.295Z,3.42
2019-06-08T21:37:20.265Z,3.35
2019-06-08T21:39:55.369Z,3.20
2019-06-08T21:42:27.788Z,3.40
2019-06-08T21:45:01.452Z,3.30
2019-06-08T21:47:33.109Z,3.90
2019-06-08T21:50:08.038Z,4.00
2019-06-08T21:52:40.457Z,3.90
2019-06-08T21:55:12.491Z,4.25
2019-06-08T21:57:44.720Z,4.90
2019-06-08T22:00:35.723Z,4.90
2019-06-08T22:02:51.876Z,4.65
2019-06-08T22:05:24.503Z,4.85
2019-06-08T22:07:58.550Z,4.03
2019-06-08T22:10:30.428Z,4.28
2019-06-08T22:13:03.058Z,4.00
2019-06-08T22:15:37.467Z,4.30
2019-06-08T22:18:08.797Z,3.95
2019-06-08T22:20:41.968Z,3.50
2019-06-08T22:23:13.989Z,3.40
2019-06-08T22:25:47.766Z,3.37
2019-06-08T22:28:19.494Z,3.40
2019-06-08T22:30:52.503Z,3.75
2019-06-08T22:33:24.957Z,3.83
2019-06-08T22:35:58.710Z,3.98
2019-06-08T22:38:30.463Z,3.85
2019-06-08T22:41:04.648Z,3.83
2019-06-08T22:43:38.125Z,4.05
2019-06-08T22:46:10.266Z,4.40
2019-06-08T22:48:42.442Z,4.53
2019-06-08T22:51:14.820Z,4.17
2019-06-08T22:53:47.839Z,4.20
2019-06-08T22:56:20.145Z,4.80
2019-06-08T22:58:54.223Z,5.08
2019-06-08T23:01:27.707Z,5.20
2019-06-08T23:04:00.897Z,4.85
2019-06-08T23:06:32.748Z,4.70
2019-06-08T23:09:06.369Z,4.80
2019-06-08T23:11:39.137Z,4.75
2019-06-08T23:14:13.348Z,4.67
2019-06-08T23:16:47.064Z,4.85
2019-06-08T23:19:18.281Z,4.60
2019-06-08T23:21:50.566Z,5.17
2019-06-08T23:24:23.676Z,4.87
2019-06-08T23:26:55.967Z,4.58
2019-06-08T23:29:28.167Z,4.65
2019-06-08T23:32:02.425Z,5.20
2019-06-08T23:34:33.889Z,4.90
2019-06-08T23:37:11.836Z,4.90
2019-06-08T23:39:39.758Z,5.05
2019-06-08T23:42:12.087Z,5.37
2019-06-08T23:44:44.262Z,4.90
2019-06-08T23:47:17.947Z,5.17
2019-06-08T23:49:50.422Z,4.70
2019-06-08T23:52:22.645Z,5.22
2019-06-08T23:54:58.210Z,4.97
2019-06-08T23:57:29.140Z,5.33
